Weather reports worldwide

Advertisment
Aonach Mor, United Kingdom (3041): temperature & dewpoint: 21.06.2017 06:00:00 - 27.06.2017 06:00:00 (BST)Aonach Mor, United Kingdom (3041): temperature 5cm: 21.06.2017 06:00:00 - 27.06.2017 06:00:00 (BST)Aonach Mor, United Kingdom (3041): wind speed & gusts: 21.06.2017 06:00:00 - 27.06.2017 06:00:00 (BST)Aonach Mor, United Kingdom (3041): wind direction: 21.06.2017 06:00:00 - 27.06.2017 06:00:00 (BST)Aonach Mor, United Kingdom (3041): visibility: 21.06.2017 06:00:00 - 27.06.2017 06:00:00 (BST)Aonach Mor, United Kingdom (3041): precipitation: 21.06.2017 06:00:00 - 27.06.2017 06:00:00 (BST)
Date & Time tt [°C] td [°C] tt 5cm [°C] ff [km/h] ff [kn] fx [km/h] fx [kn] dd vv [km] rr [mm]
27.06.2017 06:00:00 3,9 3,9 - - - - - - - -
27.06.2017 05:00:00 3,9 3,9 - - - - - - - -
27.06.2017 04:00:00 3,7 3,7 - - - - - - - -
27.06.2017 03:00:00 3,7 3,7 - - - - - - - -
27.06.2017 02:00:00 3,7 3,7 - - - - - - - -
27.06.2017 01:00:00 3,9 3,9 - - - - - - - -
27.06.2017 00:00:00 4,3 4,3 - - - - - - - -
26.06.2017 23:00:00 4,5 4,5 - - - - - - - -
26.06.2017 22:00:00 4,3 4,3 - - - - - - - -
26.06.2017 21:00:00 4,8 4,8 - - - - - - - -
26.06.2017 20:00:00 5,0 5,0 - - - - - - - -
26.06.2017 19:00:00 5,0 5,0 - - - - - - - -
26.06.2017 18:00:00 5,2 5,2 - - - - - - - -
26.06.2017 17:00:00 4,7 4,7 - - - - - - - -
26.06.2017 16:00:00 4,7 4,7 - - - - - - - -
26.06.2017 15:00:00 4,2 4,2 - - - - - - - -
26.06.2017 14:00:00 4,1 4,1 - - - - - - - -
26.06.2017 13:00:00 3,4 3,4 - - - - - - - -
26.06.2017 12:00:00 3,5 -19,0 - - - - - - - -
26.06.2017 11:00:00 3,3 - - - - - - - - -
26.06.2017 10:00:00 3,1 - - - - - - - 0,3 -
26.06.2017 09:00:00 2,4 - - - - - - - - -
26.06.2017 08:00:00 2,5 - - - - - - - - -
26.06.2017 07:00:00 2,8 - - - - - - - - -
26.06.2017 06:00:00 2,6 - - - - - - - - -
26.06.2017 05:00:00 2,3 - - - - - - - - -
26.06.2017 04:00:00 2,5 - - - - - - - - -
26.06.2017 03:00:00 2,6 - - - - - - - - -
26.06.2017 02:00:00 3,2 - - - - - - - - -
26.06.2017 01:00:00 3,2 - - - - - - - - -
26.06.2017 00:00:00 3,0 - - - - - - - - -
25.06.2017 23:00:00 3,1 - - - - - - - - -
25.06.2017 22:00:00 3,2 - - - - - - - - -
25.06.2017 21:00:00 3,0 - - - - - - - - -
25.06.2017 20:00:00 3,4 - - - - - - - - -
25.06.2017 19:00:00 3,6 - - - - - - - - -
25.06.2017 18:00:00 3,1 - - - - - - - - -
25.06.2017 17:00:00 3,6 - - - - - - - - -
25.06.2017 16:00:00 3,3 - - - - - - - - -
25.06.2017 15:00:00 3,5 - - - - - - - - -
25.06.2017 14:00:00 3,2 - - - - - - - - -
25.06.2017 13:00:00 3,3 - - - - - - - - -
25.06.2017 12:00:00 3,1 - - - - - - - - -
25.06.2017 11:00:00 3,1 - - - - - - - - -
25.06.2017 10:00:00 3,1 -19,5 - - - - - - 0,3 -
25.06.2017 09:00:00 3,1 -19,8 - - - - - - - -
25.06.2017 08:00:00 3,0 -19,4 - - - - - - - -
25.06.2017 07:00:00 3,0 -19,6 - - - - - - - -
25.06.2017 06:00:00 2,9 -20,0 - - - - - - - -
25.06.2017 05:00:00 2,8 2,7 - - - - - - - -
25.06.2017 04:00:00 2,2 2,0 - - - - - - - -
25.06.2017 03:00:00 2,3 2,1 - - - - - - - -
25.06.2017 02:00:00 2,4 2,2 - - - - - - - -
25.06.2017 01:00:00 2,2 2,1 - - - - - - - -
25.06.2017 00:00:00 2,0 2,0 - - - - - - - -
24.06.2017 23:00:00 2,1 2,0 - - - - - - - -
24.06.2017 22:00:00 1,9 1,9 - - - - - - 0,3 -
24.06.2017 21:00:00 1,8 1,8 - - - - - - - -
24.06.2017 20:00:00 2,2 2,2 - - - - - - - -
24.06.2017 19:00:00 2,5 2,4 - - - - - - - -
24.06.2017 18:00:00 2,4 2,4 - - - - - - - -
24.06.2017 17:00:00 2,6 - - - - - - - - -
24.06.2017 16:00:00 2,5 2,5 - - - - - - - -
24.06.2017 15:00:00 1,9 1,9 - - - - - - - -
24.06.2017 14:00:00 3,0 2,9 - - - - - - - -
24.06.2017 13:00:00 2,4 2,4 - - - - - - - -
24.06.2017 12:00:00 2,3 2,2 - - - - - - - -
24.06.2017 11:00:00 2,1 2,1 - - - - - - - -
24.06.2017 10:00:00 1,5 1,5 - - - - - - - -
24.06.2017 09:00:00 1,9 1,9 - - - - - - - -
24.06.2017 08:00:00 2,3 2,3 - - - - - - - -
24.06.2017 07:00:00 1,9 1,9 - - - - - - - -
24.06.2017 06:00:00 2,2 2,2 - - - - - - - -
24.06.2017 05:00:00 2,1 2,1 - - - - - - - -
24.06.2017 04:00:00 2,1 2,1 - - - - - - - -
24.06.2017 03:00:00 3,0 3,0 - - - - - - - -
24.06.2017 02:00:00 2,3 2,3 - - - - - - - -
24.06.2017 01:00:00 2,6 2,6 - - - - - - - -
24.06.2017 00:00:00 3,0 3,0 - - - - - - - -
23.06.2017 23:00:00 2,7 - - - - - - - - -
23.06.2017 22:00:00 2,5 2,5 - - - - - - - -
23.06.2017 21:00:00 2,8 2,8 - - - - - - - -
23.06.2017 20:00:00 2,8 - - - - - - - - -
23.06.2017 19:00:00 3,1 - - - - - - - - -
23.06.2017 18:00:00 3,4 -19,6 - - - - - - - -
23.06.2017 17:00:00 3,5 - - - - - - - - -
23.06.2017 16:00:00 3,5 - - - - - - - - -
23.06.2017 15:00:00 4,0 - - - - - - - - -
23.06.2017 14:00:00 4,3 - - - - - - - - -
23.06.2017 13:00:00 3,8 - - - - - - - - -
23.06.2017 12:00:00 4,1 - - - - - - - - -
23.06.2017 11:00:00 4,8 -18,4 - - - - - - - -
23.06.2017 10:00:00 5,0 4,9 - - - - - - - -
23.06.2017 09:00:00 5,3 - - - - - - - - -
23.06.2017 08:00:00 7,1 7,1 - - - - - - - -
23.06.2017 07:00:00 7,3 7,3 - - - - - - - -
23.06.2017 06:00:00 7,0 7,0 - - - - - - - -
23.06.2017 05:00:00 6,9 6,1 - - - - - - - -
23.06.2017 04:00:00 6,6 6,6 - - - - - - - -
23.06.2017 03:00:00 6,4 6,4 - - - - - - - -
23.06.2017 02:00:00 6,3 6,3 - - - - - - - -
23.06.2017 01:00:00 6,0 6,0 - - - - - - - -
23.06.2017 00:00:00 5,9 5,9 - - - - - - - -
22.06.2017 23:00:00 5,8 5,8 - - - - - - - -
22.06.2017 22:00:00 5,6 5,6 - - - - - - 0,3 -
22.06.2017 21:00:00 5,3 5,3 - - - - - - - -
22.06.2017 20:00:00 5,3 5,3 - - - - - - - -
22.06.2017 19:00:00 5,2 5,2 - - - - - - - -
22.06.2017 18:00:00 6,0 5,8 - - - - - - - -
22.06.2017 17:00:00 6,1 5,8 - - - - - - - -
22.06.2017 16:00:00 6,2 5,4 - - - - - - - -
22.06.2017 15:00:00 5,9 5,4 - - - - - - - -
22.06.2017 14:00:00 5,9 1,4 - - - - - - - -
22.06.2017 13:00:00 6,2 2,0 - - - - - - - -
22.06.2017 12:00:00 5,6 1,8 - - - - - - - -
22.06.2017 11:00:00 5,0 3,5 - 16 9 - - WSW - -
22.06.2017 10:00:00 5,0 2,4 - 15 8 - - WSW - -
22.06.2017 09:00:00 5,1 -7,4 - 5 3 - - SSW - -
22.06.2017 08:00:00 4,8 4,7 - 9 5 - - SSW - -
22.06.2017 07:00:00 5,7 5,7 - 11 6 - - W - -
22.06.2017 06:00:00 6,3 6,3 - 15 8 - - WSW - -
22.06.2017 05:00:00 7,3 7,3 - 18 10 - - WSW - -
22.06.2017 04:00:00 7,4 7,4 - 21 11 - - WSW - -
22.06.2017 03:00:00 7,6 7,6 - 21 11 - - WSW - -
22.06.2017 02:00:00 7,5 7,5 - 15 8 - - WSW - -
22.06.2017 01:00:00 8,1 8,1 - 22 12 61 33 SSW - -
22.06.2017 00:00:00 9,5 9,5 - 34 18 57 31 SSW - -
21.06.2017 23:00:00 10,2 10,2 - 37 20 68 37 SSW - -
21.06.2017 22:00:00 10,9 10,9 - 42 23 63 34 SSW 0,3 -
21.06.2017 21:00:00 11,1 11,1 - 31 17 - - SSW - -
21.06.2017 20:00:00 11,3 11,3 - 26 14 55 30 SW - -
21.06.2017 19:00:00 11,1 11,1 - 42 23 61 33 SSW - -
21.06.2017 18:00:00 11,0 11,0 - 41 22 67 36 SSW - -
21.06.2017 17:00:00 11,7 10,6 - 46 25 57 31 SSW - -
21.06.2017 16:00:00 12,5 11,0 - 42 23 67 36 SSW - -
21.06.2017 15:00:00 12,8 10,2 - 44 24 65 35 SSW - -
21.06.2017 14:00:00 12,3 10,1 - 41 22 72 39 SSW - -
21.06.2017 13:00:00 11,4 11,4 - 50 27 70 38 SSW - -
21.06.2017 12:00:00 11,2 10,4 - 42 23 81 44 SW - -
21.06.2017 11:00:00 11,7 7,4 - 63 34 83 45 SSW - -
21.06.2017 10:00:00 11,1 11,0 15,1 54 29 74 40 SSW - 0,7
21.06.2017 09:00:00 10,8 10,8 - 48 26 70 38 SSW - -
21.06.2017 08:00:00 11,1 9,7 - 57 31 68 37 SSW - -
21.06.2017 07:00:00 10,2 9,0 - 55 30 74 40 SSW - -
21.06.2017 06:00:00 10,2 8,1 - 54 29 70 38 SSW - -

tt = temperature
td = dewpoint
tt 5cm = temperature 5cm
ff = wind speed
fx = gusts
dd = wind direction
vv = visibility
rr = precipitation

Next stations